Forside
METAR-TAF:

METAR-TAF

Lufthavne :

Humberside Airport

Humberside, England

Breddekreds: 53-35N, længdekreds: 000-21W, højde: 31 m

Aktuelle vejr

Denne rapport blev lavet for 22 minutter siden, kl. 17:50 UTC
Vind 11 kt fra vest
Temperatur 6°C
Fugtighed 65%
Tryk 1019 hPa
Sigt 10 km eller mere
Nogle få skyer i en højde af 2700 ft

METAR: EGNJ 231750Z 26011KT 9999 FEW027 06/M00 Q1019

Tid: 18:12 (18:12 UTC)

Vejrudsigter

Denne rapport blev lavet for 1 time og 14 minutter siden, kl. 16:58 UTC
Foreløbig gælder fra 23 på 18 UTC til 24 på 03 UTC
Vind 12 kt fra vest
Sigt 10 km eller mere
Nogle få skyer i en højde af 3000 ft
ændring
fra 23 på 21 UTC til 23 på 24 UTC
Vind 5 kt fra sydsydvest

TAF: EGNJ 231658Z 2318/2403 27012KT 9999 FEW030 BECMG 2321/2324 20005KT

Vejrobservationer og prognoser fra mere end 4000 lufthavne (METAR og TAF).

De gule og røde prikker repræsenterer de meteorologiske stationer.

Flyt musen over at se navnet på stationen.

Så klik over at se vejr observationer og prognoser.

At skifte det kort: Klik på de grønne knapper med et sort kors for at zoome ind; på den grønne knap med en bindestreg for at zoome ud; eller på de grønne pile for tilstødende kort.


METAR-TAF: